Time;durP1;ratioP1;P1;durP2;ratioP2;P2;SDS_P1;SDS_P2;PMS_P1;PMS_P2;Temp;Humidity;BMP_temperature;BMP_pressure;BME280_temperature;BME280_humidity;BME280_pressure;Samples;Min_cycle;Max_cycle;Signal;HPM_P1;HPM_P2
2023/05/17 00:01:10;;;;;;;1.40;0.68;;;8.20;65.90;;;;;;4997953;28;20708;-76
2023/05/17 00:03:35;;;;;;;0.98;0.50;;;8.20;66.00;;;;;;4990252;28;20459;-76
2023/05/17 00:06:01;;;;;;;3.70;1.00;;;8.20;66.10;;;;;;4974338;28;20037;-76
2023/05/17 00:08:26;;;;;;;2.63;0.90;;;8.10;66.20;;;;;;4966388;28;20033;-75
2023/05/17 00:10:52;;;;;;;3.75;0.77;;;8.10;66.30;;;;;;4979561;28;20049;-76
2023/05/17 00:13:17;;;;;;;1.58;0.63;;;8.10;66.40;;;;;;4995980;28;20547;-76
2023/05/17 00:15:43;;;;;;;2.17;0.70;;;8.00;66.40;;;;;;5017226;28;20116;-75
2023/05/17 00:18:08;;;;;;;2.83;0.70;;;8.00;66.40;;;;;;4981043;28;20099;-76
2023/05/17 00:20:35;;;;;;;2.90;0.63;;;8.00;66.60;;;;;;4980511;28;20086;-76
2023/05/17 00:23:00;;;;;;;2.28;0.60;;;7.90;66.60;;;;;;5017095;28;20041;-76
2023/05/17 00:25:26;;;;;;;2.25;0.70;;;7.90;66.60;;;;;;4982737;28;20041;-76
2023/05/17 00:27:51;;;;;;;1.33;0.60;;;7.80;67.30;;;;;;5016763;28;20078;-76
2023/05/17 00:30:17;;;;;;;1.92;0.60;;;7.80;67.00;;;;;;4983932;28;20072;-76
2023/05/17 00:32:45;;;;;;;7.43;2.28;;;7.80;67.00;;;;;;4994637;28;20044;-76
2023/05/17 00:35:11;;;;;;;1.00;0.60;;;7.70;67.10;;;;;;4996528;28;20565;-77
2023/05/17 00:37:36;;;;;;;2.67;0.80;;;7.70;67.20;;;;;;4995704;28;20033;-76
2023/05/17 00:40:04;;;;;;;2.67;0.73;;;7.70;67.20;;;;;;5015067;28;20045;-76
2023/05/17 00:42:29;;;;;;;2.78;0.70;;;7.70;67.40;;;;;;4995945;28;20125;-76
2023/05/17 00:44:55;;;;;;;2.00;0.70;;;7.60;67.50;;;;;;4993926;28;20037;-76
2023/05/17 00:47:21;;;;;;;3.45;0.80;;;7.60;67.60;;;;;;4995921;28;20798;-76
2023/05/17 00:49:46;;;;;;;3.42;0.60;;;7.60;67.70;;;;;;5011780;28;20128;-77
2023/05/17 00:52:12;;;;;;;1.27;0.63;;;7.50;67.80;;;;;;4977729;28;20211;-76
2023/05/17 00:54:38;;;;;;;1.52;0.68;;;7.50;67.90;;;;;;4981712;28;20117;-76
2023/05/17 00:57:04;;;;;;;3.45;0.85;;;7.50;68.00;;;;;;4978523;28;20116;-76
2023/05/17 00:59:30;;;;;;;2.90;1.10;;;7.50;68.10;;;;;;4978492;28;20166;-76
2023/05/17 01:01:55;;;;;;;5.15;0.80;;;7.40;68.10;;;;;;4980569;28;20396;-76
2023/05/17 01:04:21;;;;;;;2.22;0.80;;;7.40;68.30;;;;;;4995497;28;20590;-76
2023/05/17 01:06:46;;;;;;;2.10;0.63;;;7.40;69.20;;;;;;4994304;28;20732;-76
2023/05/17 01:09:12;;;;;;;3.78;0.88;;;7.40;68.40;;;;;;5010673;28;20041;-76
2023/05/17 01:11:59;;;;;;;2.22;0.80;;;7.40;68.60;;;;;;4997526;28;20041;-76
2023/05/17 01:14:48;;;;;;;1.23;0.73;;;7.30;69.00;;;;;;4995493;28;20041;-76
2023/05/17 01:17:24;;;;;;;2.40;0.75;;;7.30;69.10;;;;;;4996605;28;20030;-75
2023/05/17 01:20:15;;;;;;;2.22;0.90;;;7.30;69.00;;;;;;4980639;28;20091;-76
2023/05/17 01:23:13;;;;;;;3.15;1.60;;;7.30;69.10;;;;;;4998796;28;20041;-75
2023/05/17 01:26:05;;;;;;;3.22;1.08;;;7.20;68.80;;;;;;4979805;28;20029;-76
2023/05/17 01:28:31;;;;;;;3.90;1.15;;;7.20;69.30;;;;;;4993811;28;20033;-77
2023/05/17 01:30:57;;;;;;;2.28;0.80;;;7.20;69.10;;;;;;4993998;28;20732;-76
2023/05/17 01:33:23;;;;;;;2.03;0.68;;;7.20;69.40;;;;;;4977238;28;20072;-77
2023/05/17 01:35:48;;;;;;;7.70;1.23;;;7.10;69.40;;;;;;4977045;28;20065;-76
2023/05/17 01:38:14;;;;;;;2.25;0.98;;;7.10;69.50;;;;;;4954991;28;20065;-76
2023/05/17 01:41:06;;;;;;;2.60;0.80;;;7.10;69.60;;;;;;4960530;28;20117;-76
2023/05/17 01:43:51;;;;;;;2.67;1.02;;;7.10;69.90;;;;;;4989090;28;20172;-76
2023/05/17 01:46:27;;;;;;;1.70;1.00;;;7.10;70.00;;;;;;4988873;28;20704;-76
2023/05/17 01:49:05;;;;;;;4.22;0.80;;;7.10;70.10;;;;;;4995237;28;20037;-75
2023/05/17 01:51:32;;;;;;;2.17;1.30;;;7.00;70.10;;;;;;5000051;28;20077;-75
2023/05/17 01:54:01;;;;;;;1.65;1.15;;;7.00;70.10;;;;;;5004638;28;20040;-77
2023/05/17 01:56:29;;;;;;;3.30;0.90;;;7.00;70.20;;;;;;4979716;28;20045;-76
2023/05/17 01:58:54;;;;;;;2.85;0.90;;;7.00;70.20;;;;;;4991999;28;20104;-75
2023/05/17 02:01:20;;;;;;;2.95;0.82;;;7.00;70.20;;;;;;4995024;28;20041;-76
2023/05/17 02:03:49;;;;;;;3.95;0.90;;;6.90;70.20;;;;;;4994316;28;20046;-77
2023/05/17 02:06:15;;;;;;;3.67;1.00;;;7.00;70.50;;;;;;5006263;28;20092;-76
2023/05/17 02:08:40;;;;;;;3.30;0.90;;;6.90;70.40;;;;;;5006846;28;20041;-77
2023/05/17 02:11:06;;;;;;;2.47;1.00;;;6.90;70.50;;;;;;4995414;28;20041;-76
2023/05/17 02:13:31;;;;;;;2.30;0.80;;;6.90;70.50;;;;;;4999580;28;20044;-75
2023/05/17 02:16:01;;;;;;;4.80;1.05;;;6.90;70.70;;;;;;4982132;28;20090;-75
2023/05/17 02:18:26;;;;;;;3.70;1.40;;;6.80;70.80;;;;;;4990361;28;20061;-76
2023/05/17 02:20:52;;;;;;;1.80;0.88;;;6.80;70.80;;;;;;4982174;28;20049;-75
2023/05/17 02:23:18;;;;;;;1.88;1.00;;;6.80;70.80;;;;;;5012971;28;20037;-76
2023/05/17 02:25:43;;;;;;;3.65;1.10;;;6.80;70.80;;;;;;5014830;28;20047;-76
2023/05/17 02:28:09;;;;;;;3.15;1.05;;;6.70;70.90;;;;;;5010872;28;20037;-77
2023/05/17 02:30:35;;;;;;;3.30;1.02;;;6.70;70.90;;;;;;4990525;28;20412;-76
2023/05/17 02:33:00;;;;;;;3.85;1.02;;;6.70;71.10;;;;;;4994687;28;20038;-76
2023/05/17 02:35:26;;;;;;;2.47;1.02;;;6.70;71.10;;;;;;5015993;28;20137;-76
2023/05/17 02:37:51;;;;;;;1.98;1.02;;;6.70;71.20;;;;;;5001301;28;20125;-76
2023/05/17 02:40:17;;;;;;;4.40;1.20;;;6.60;71.20;;;;;;5003074;28;20725;-76
2023/05/17 02:42:42;;;;;;;3.22;1.10;;;6.60;71.40;;;;;;5023467;28;20407;-76
2023/05/17 02:45:08;;;;;;;4.45;1.15;;;6.60;71.40;;;;;;5014805;28;20064;-75
2023/05/17 02:47:34;;;;;;;3.60;1.10;;;6.60;71.50;;;;;;5015787;28;20108;-76
2023/05/17 02:49:59;;;;;;;4.18;1.33;;;6.60;71.50;;;;;;5003862;28;20107;-76
2023/05/17 02:52:25;;;;;;;1.90;1.05;;;6.60;71.50;;;;;;4976163;28;20052;-75
2023/05/17 02:54:51;;;;;;;3.33;1.10;;;6.60;71.60;;;;;;4976953;28;20073;-76
2023/05/17 02:57:16;;;;;;;5.53;1.20;;;6.50;71.60;;;;;;4982980;28;20405;-77
2023/05/17 02:59:42;;;;;;;5.75;1.77;;;6.50;71.70;;;;;;4967838;28;20044;-76
2023/05/17 03:02:07;;;;;;;2.78;1.23;;;6.50;71.70;;;;;;4959744;28;20074;-76
2023/05/17 03:04:33;;;;;;;2.25;1.00;;;6.50;71.80;;;;;;4944028;28;20122;-75
2023/05/17 03:06:58;;;;;;;3.88;1.15;;;6.40;71.80;;;;;;4958120;28;20058;-76
2023/05/17 03:09:24;;;;;;;4.50;1.15;;;6.40;71.90;;;;;;4963062;28;20267;-76
2023/05/17 03:11:50;;;;;;;2.28;1.02;;;6.40;72.00;;;;;;4974873;28;20034;-76
2023/05/17 03:14:15;;;;;;;1.60;1.00;;;6.40;72.10;;;;;;4956273;28;20408;-76
2023/05/17 03:16:41;;;;;;;2.05;1.10;;;6.40;72.20;;;;;;4936647;28;20034;-75
2023/05/17 03:19:06;;;;;;;2.15;1.13;;;6.40;72.30;;;;;;4929538;28;20641;-77
2023/05/17 03:21:32;;;;;;;4.40;2.15;;;6.30;72.30;;;;;;4976122;28;20064;-76
2023/05/17 03:23:57;;;;;;;3.85;1.10;;;6.30;72.30;;;;;;4965206;28;20059;-75
2023/05/17 03:26:23;;;;;;;1.50;1.17;;;6.30;72.40;;;;;;4956480;28;20132;-76
2023/05/17 03:28:49;;;;;;;3.03;1.23;;;6.30;72.50;;;;;;4977665;28;20042;-77
2023/05/17 03:31:16;;;;;;;2.90;1.55;;;6.30;72.60;;;;;;4967882;28;20497;-76
2023/05/17 03:33:41;;;;;;;2.83;1.30;;;6.20;73.40;;;;;;4954832;28;20699;-75
2023/05/17 03:36:07;;;;;;;3.80;1.30;;;6.20;72.70;;;;;;4975863;28;20791;-77
2023/05/17 03:38:33;;;;;;;4.15;1.70;;;6.20;72.80;;;;;;4995846;28;20041;-76
2023/05/17 03:40:58;;;;;;;5.40;1.67;;;6.20;72.80;;;;;;4979779;28;20400;-76
2023/05/17 03:43:24;;;;;;;2.45;1.27;;;6.20;72.90;;;;;;4994656;28;20049;-76
2023/05/17 03:45:49;;;;;;;4.80;1.48;;;6.20;73.00;;;;;;4993137;28;20176;-76
2023/05/17 03:48:15;;;;;;;4.97;1.45;;;6.20;73.00;;;;;;4992050;28;20540;-75
2023/05/17 03:50:41;;;;;;;3.42;1.60;;;6.20;73.20;;;;;;4992002;28;20045;-75
2023/05/17 03:53:06;;;;;;;4.78;1.27;;;6.10;73.10;;;;;;4993326;28;20497;-76
2023/05/17 03:55:32;;;;;;;3.78;1.67;;;6.10;73.20;;;;;;4978144;28;20034;-76
2023/05/17 03:57:57;;;;;;;5.18;1.40;;;6.10;73.20;;;;;;4961793;28;20034;-76
2023/05/17 04:00:23;;;;;;;1.80;1.10;;;6.10;73.30;;;;;;4978678;28;20041;-76
2023/05/17 04:02:49;;;;;;;11.95;1.67;;;6.10;73.40;;;;;;4962829;28;20863;-77
2023/05/17 04:05:15;;;;;;;3.97;1.45;;;6.10;73.40;;;;;;4964582;28;20037;-75
2023/05/17 04:07:40;;;;;;;3.00;1.50;;;6.10;73.60;;;;;;4978923;28;20042;-75
2023/05/17 04:10:06;;;;;;;7.47;1.48;;;6.00;73.60;;;;;;5001667;28;20524;-77
2023/05/17 04:12:32;;;;;;;6.03;1.80;;;6.00;73.60;;;;;;4995051;28;20034;-76
2023/05/17 04:14:57;;;;;;;3.05;1.50;;;6.00;73.60;;;;;;4979099;28;20060;-76
2023/05/17 04:17:23;;;;;;;3.55;1.50;;;6.00;73.70;;;;;;4994584;28;20061;-76
2023/05/17 04:19:48;;;;;;;4.47;1.45;;;6.00;73.80;;;;;;4995323;28;20417;-76
2023/05/17 04:22:14;;;;;;;6.10;1.80;;;6.00;73.90;;;;;;4997398;28;20592;-77
2023/05/17 04:24:40;;;;;;;6.78;1.80;;;6.00;74.00;;;;;;4995311;28;20057;-76
2023/05/17 04:27:06;;;;;;;1.38;0.98;;;6.00;74.10;;;;;;4977545;28;20038;-75
2023/05/17 04:29:31;;;;;;;4.68;1.63;;;6.00;74.10;;;;;;4990529;28;20030;-75
2023/05/17 04:31:57;;;;;;;3.47;1.33;;;6.00;74.30;;;;;;4990755;28;20630;-76
2023/05/17 04:34:23;;;;;;;4.43;1.35;;;6.00;74.30;;;;;;4966869;28;20052;-76
2023/05/17 04:36:49;;;;;;;3.25;1.70;;;6.00;74.50;;;;;;4989026;28;20109;-76
2023/05/17 04:39:15;;;;;;;4.07;1.85;;;6.00;74.50;;;;;;4975543;28;20049;-76
2023/05/17 04:41:40;;;;;;;3.22;1.27;;;6.00;74.70;;;;;;4977352;28;20034;-76
2023/05/17 04:44:06;;;;;;;3.95;1.50;;;6.10;74.80;;;;;;4993744;28;20034;-76
2023/05/17 04:46:32;;;;;;;2.88;1.58;;;6.10;75.00;;;;;;4991678;28;20116;-76
2023/05/17 04:48:57;;;;;;;5.15;1.60;;;6.10;75.00;;;;;;4977831;28;20132;-76
2023/05/17 04:51:23;;;;;;;3.00;1.50;;;6.10;75.10;;;;;;4993104;28;20054;-77
2023/05/17 04:53:48;;;;;;;2.08;1.48;;;6.20;75.30;;;;;;4994449;28;20121;-77
2023/05/17 04:56:14;;;;;;;4.88;2.17;;;6.20;75.40;;;;;;4994078;28;20045;-76
2023/05/17 04:58:39;;;;;;;2.42;1.73;;;6.20;75.40;;;;;;4995058;28;20042;-74
2023/05/17 05:01:05;;;;;;;3.30;1.55;;;6.20;75.60;;;;;;4992772;28;20058;-76
2023/05/17 05:03:31;;;;;;;4.93;1.90;;;6.20;75.50;;;;;;4994158;28;20042;-76
2023/05/17 05:05:56;;;;;;;2.72;1.50;;;6.30;75.70;;;;;;4993186;28;20041;-76
2023/05/17 05:08:22;;;;;;;2.70;1.30;;;6.30;75.70;;;;;;4975734;28;20092;-76
2023/05/17 05:10:47;;;;;;;2.65;1.30;;;6.30;75.80;;;;;;4990313;28;20064;-76
2023/05/17 05:13:13;;;;;;;3.00;1.45;;;6.40;75.80;;;;;;4995732;28;20419;-76
2023/05/17 05:15:38;;;;;;;11.43;1.92;;;6.40;75.80;;;;;;4990114;28;20497;-76
2023/05/17 05:18:04;;;;;;;4.25;1.52;;;6.50;75.90;;;;;;4993299;28;20128;-76
2023/05/17 05:20:30;;;;;;;5.43;1.85;;;6.50;75.90;;;;;;4961782;28;20461;-76
2023/05/17 05:22:57;;;;;;;7.75;1.92;;;6.60;76.00;;;;;;4993931;28;20505;-76
2023/05/17 05:25:22;;;;;;;2.75;1.77;;;6.60;76.00;;;;;;4995067;28;20034;-75
2023/05/17 05:27:48;;;;;;;3.53;1.55;;;6.70;76.00;;;;;;4975799;28;20037;-75
2023/05/17 05:30:20;;;;;;;5.60;2.75;;;6.70;76.20;;;;;;4991045;28;20140;-76
2023/05/17 05:32:47;;;;;;;6.00;1.85;;;6.80;76.20;;;;;;4992203;28;20049;-76
2023/05/17 05:35:12;;;;;;;8.52;1.90;;;6.90;76.20;;;;;;4990228;28;20056;-76
2023/05/17 05:37:38;;;;;;;7.22;1.98;;;6.90;76.10;;;;;;4992278;28;20060;-76
2023/05/17 05:40:04;;;;;;;5.80;1.88;;;7.00;76.10;;;;;;4994400;28;20468;-76
2023/05/17 05:42:29;;;;;;;6.45;1.88;;;7.10;76.10;;;;;;4974334;28;20038;-76
2023/05/17 05:44:55;;;;;;;6.93;2.20;;;7.20;76.10;;;;;;4976037;28;20452;-76
2023/05/17 05:47:20;;;;;;;5.40;1.90;;;7.30;76.10;;;;;;4992998;28;20030;-76
2023/05/17 05:49:46;;;;;;;4.97;2.45;;;7.40;76.10;;;;;;4970733;28;20042;-76
2023/05/17 05:52:12;;;;;;;5.82;2.50;;;7.50;76.00;;;;;;4976804;28;20142;-76
2023/05/17 05:54:37;;;;;;;7.88;2.33;;;7.50;75.90;;;;;;4961276;28;20123;-76
2023/05/17 05:57:03;;;;;;;7.85;2.15;;;7.60;75.80;;;;;;4972794;28;20049;-76
2023/05/17 05:59:28;;;;;;;5.43;2.22;;;7.70;75.70;;;;;;4958334;28;20035;-76
2023/05/17 06:01:54;;;;;;;4.85;2.42;;;7.80;75.60;;;;;;4972359;28;20046;-77
2023/05/17 06:04:19;;;;;;;7.53;2.03;;;7.90;75.60;;;;;;4975279;28;20026;-75
2023/05/17 06:06:45;;;;;;;4.82;1.88;;;8.00;75.60;;;;;;4976571;28;20030;-76
2023/05/17 06:09:13;;;;;;;8.48;2.42;;;8.10;75.50;;;;;;4978164;28;20400;-75
2023/05/17 06:11:39;;;;;;;4.93;2.00;;;8.20;75.40;;;;;;4976918;28;20065;-76
2023/05/17 06:14:04;;;;;;;6.43;2.17;;;8.40;75.20;;;;;;4996350;28;20136;-76
2023/05/17 06:19:52;;;;;;;5.30;2.03;;;8.70;75.30;;;;;;4992245;28;20044;-75
2023/05/17 06:22:18;;;;;;;8.38;2.63;;;8.80;74.90;;;;;;4994839;28;20042;-74
2023/05/17 06:24:43;;;;;;;5.18;2.40;;;8.90;74.60;;;;;;4964674;28;20049;-76
2023/05/17 06:27:09;;;;;;;5.65;2.22;;;9.10;74.40;;;;;;4960537;28;20034;-75
2023/05/17 06:29:34;;;;;;;6.30;1.85;;;9.20;74.10;;;;;;4993033;28;20061;-77
2023/05/17 06:32:00;;;;;;;6.05;1.90;;;9.40;74.00;;;;;;4994588;28;20077;-75
2023/05/17 06:34:25;;;;;;;5.03;1.95;;;9.50;73.80;;;;;;4979468;28;20114;-76
2023/05/17 06:36:51;;;;;;;4.80;2.03;;;9.60;73.60;;;;;;4948536;28;20116;-75
2023/05/17 06:39:16;;;;;;;6.15;1.70;;;9.80;73.30;;;;;;4979509;28;20042;-75
2023/05/17 06:41:42;;;;;;;4.28;2.17;;;9.90;73.10;;;;;;4980062;28;20038;-75
2023/05/17 06:44:07;;;;;;;4.88;2.58;;;10.00;72.90;;;;;;4979137;28;20038;-76
2023/05/17 06:46:33;;;;;;;4.82;2.20;;;10.10;72.80;;;;;;4965690;28;20034;-76
2023/05/17 06:48:59;;;;;;;7.60;1.80;;;10.20;72.60;;;;;;4962628;28;20054;-76
2023/05/17 06:51:24;;;;;;;4.45;1.90;;;10.30;72.40;;;;;;4993446;28;20132;-76
2023/05/17 06:53:50;;;;;;;7.10;2.17;;;10.40;72.10;;;;;;4995041;28;20037;-77
2023/05/17 06:56:15;;;;;;;4.13;1.90;;;10.50;72.00;;;;;;5012231;28;20038;-76
2023/05/17 06:58:41;;;;;;;3.88;1.52;;;10.50;71.70;;;;;;5012185;28;20785;-76
2023/05/17 07:01:06;;;;;;;6.50;2.33;;;10.60;71.60;;;;;;5015729;28;20713;-76
2023/05/17 07:03:32;;;;;;;4.40;1.85;;;10.70;71.40;;;;;;4999761;28;20059;-75
2023/05/17 07:05:58;;;;;;;3.70;1.90;;;10.80;71.20;;;;;;5013629;28;20041;-77
2023/05/17 07:08:24;;;;;;;7.25;1.70;;;10.90;71.00;;;;;;5017488;28;20041;-76
2023/05/17 07:10:52;;;;;;;4.43;1.70;;;10.90;70.80;;;;;;5009106;28;20147;-76
2023/05/17 07:13:18;;;;;;;7.45;2.63;;;11.00;71.40;;;;;;4999964;28;20029;-76
2023/05/17 07:15:44;;;;;;;4.53;2.10;;;11.10;70.40;;;;;;5008084;28;20063;-76
2023/05/17 07:18:09;;;;;;;4.00;1.88;;;11.20;70.30;;;;;;5011897;28;20806;-77
2023/05/17 07:20:35;;;;;;;3.25;1.45;;;11.30;70.00;;;;;;5014764;28;20034;-76
2023/05/17 07:23:00;;;;;;;5.68;2.20;;;11.40;70.70;;;;;;5017964;28;20042;-77
2023/05/17 07:25:26;;;;;;;4.82;2.17;;;11.50;69.80;;;;;;5017681;28;20057;-77
2023/05/17 07:27:51;;;;;;;4.80;2.90;;;11.50;69.50;;;;;;4982716;28;20049;-77
2023/05/17 07:30:17;;;;;;;4.60;1.90;;;11.70;69.50;;;;;;5001747;28;20636;-76
2023/05/17 07:32:42;;;;;;;7.93;2.15;;;11.70;69.20;;;;;;5012316;28;20465;-76
2023/05/17 07:35:08;;;;;;;5.55;2.05;;;11.80;69.00;;;;;;5011720;28;20045;-76
2023/05/17 07:37:34;;;;;;;7.80;1.95;;;11.90;68.80;;;;;;4990156;28;20507;-75
2023/05/17 07:39:59;;;;;;;4.88;2.15;;;11.90;68.70;;;;;;4999646;28;21753;-76
2023/05/17 07:42:25;;;;;;;3.30;1.50;;;12.00;68.60;;;;;;5013411;28;20041;-77
2023/05/17 07:44:50;;;;;;;6.05;1.80;;;12.00;68.30;;;;;;4997751;28;20033;-76
2023/05/17 07:47:16;;;;;;;4.75;2.15;;;12.10;68.20;;;;;;4997225;28;20072;-76
2023/05/17 07:49:41;;;;;;;3.20;1.85;;;12.20;68.10;;;;;;5014963;28;20132;-76
2023/05/17 07:52:07;;;;;;;6.65;2.20;;;12.30;68.00;;;;;;4980971;28;20041;-76
2023/05/17 07:54:33;;;;;;;5.65;2.42;;;12.30;67.80;;;;;;4978366;28;20108;-77
2023/05/17 07:56:59;;;;;;;7.07;2.20;;;12.40;67.70;;;;;;4997660;28;20113;-76
2023/05/17 07:59:24;;;;;;;7.45;2.10;;;12.40;67.50;;;;;;5015347;28;20495;-76
2023/05/17 08:01:50;;;;;;;8.25;2.13;;;12.50;67.30;;;;;;4997280;28;20033;-76
2023/05/17 08:04:16;;;;;;;7.50;2.65;;;12.50;67.10;;;;;;4997642;28;20698;-76
2023/05/17 08:06:42;;;;;;;9.00;1.92;;;12.60;66.90;;;;;;4981209;28;20069;-76
2023/05/17 08:09:07;;;;;;;6.07;2.58;;;12.60;66.70;;;;;;4980365;28;20103;-76
2023/05/17 08:11:33;;;;;;;5.63;2.38;;;12.60;66.60;;;;;;4998338;28;20041;-76
2023/05/17 08:13:59;;;;;;;8.60;2.60;;;12.70;66.60;;;;;;4978190;28;20522;-76
2023/05/17 08:16:25;;;;;;;7.05;2.40;;;12.70;66.40;;;;;;4995896;28;20059;-76
2023/05/17 08:18:51;;;;;;;6.03;2.38;;;12.70;66.40;;;;;;4977388;28;20037;-76
2023/05/17 08:21:16;;;;;;;6.05;2.13;;;12.80;66.40;;;;;;4991827;28;20129;-75
2023/05/17 08:23:42;;;;;;;5.85;2.15;;;12.80;66.20;;;;;;4996139;28;20037;-76
2023/05/17 08:26:08;;;;;;;4.18;2.15;;;12.80;66.10;;;;;;4982749;28;20034;-76
2023/05/17 08:28:33;;;;;;;5.35;2.83;;;12.90;66.10;;;;;;4981975;28;20034;-75
2023/05/17 08:30:59;;;;;;;8.38;2.42;;;12.90;66.00;;;;;;4996272;28;20116;-76
2023/05/17 08:33:24;;;;;;;3.88;2.25;;;13.00;65.90;;;;;;4982714;28;20047;-76
2023/05/17 08:35:53;;;;;;;4.07;2.20;;;13.10;65.80;;;;;;4956740;28;20045;-76
2023/05/17 08:38:20;;;;;;;7.53;2.15;;;13.20;65.70;;;;;;4980655;28;20073;-76
2023/05/17 08:40:53;;;;;;;7.70;3.03;;;13.20;65.60;;;;;;5002184;28;20025;-76
2023/05/17 08:43:18;;;;;;;7.45;2.80;;;13.30;65.20;;;;;;5000568;28;22113;-76
2023/05/17 08:45:44;;;;;;;6.82;2.20;;;13.30;65.10;;;;;;4979514;28;20044;-76
2023/05/17 08:48:10;;;;;;;5.50;1.98;;;13.40;65.00;;;;;;4997692;28;20033;-76
2023/05/17 08:50:37;;;;;;;4.80;2.05;;;13.40;64.70;;;;;;5005423;28;20575;-76
2023/05/17 08:53:02;;;;;;;6.65;2.35;;;13.50;64.60;;;;;;4981130;28;20095;-76
2023/05/17 08:55:28;;;;;;;6.97;2.65;;;13.50;64.40;;;;;;5013994;28;20033;-76
2023/05/17 08:57:54;;;;;;;5.13;2.28;;;13.60;64.30;;;;;;4997485;28;20034;-76
2023/05/17 09:00:20;;;;;;;4.50;2.25;;;13.60;64.10;;;;;;4996451;28;20072;-76
2023/05/17 09:02:46;;;;;;;5.80;2.20;;;13.70;63.80;;;;;;4986475;28;20068;-76
2023/05/17 09:05:12;;;;;;;6.88;2.00;;;13.80;63.70;;;;;;4996732;28;20061;-76
2023/05/17 09:07:38;;;;;;;4.82;2.08;;;13.90;63.60;;;;;;4998124;28;20041;-76
2023/05/17 09:10:04;;;;;;;3.65;1.83;;;13.90;63.60;;;;;;5011202;28;20038;-76
2023/05/17 09:12:34;;;;;;;6.35;2.10;;;14.00;63.50;;;;;;5011512;28;20030;-77
2023/05/17 09:15:19;;;;;;;4.32;1.75;;;14.00;63.20;;;;;;5006168;28;20026;-77
2023/05/17 09:18:02;;;;;;;6.95;2.40;;;14.10;62.40;;;;;;4995885;28;20713;-77
2023/05/17 09:20:35;;;;;;;4.80;2.05;;;14.20;62.20;;;;;;5011808;28;20130;-76
2023/05/17 09:23:01;;;;;;;6.40;1.92;;;14.20;62.50;;;;;;4996141;28;20494;-77
2023/05/17 09:25:27;;;;;;;2.88;1.50;;;14.30;62.40;;;;;;4995916;28;20045;-77
2023/05/17 09:27:53;;;;;;;4.03;1.90;;;14.40;62.20;;;;;;5011368;28;20029;-76
2023/05/17 09:30:19;;;;;;;7.32;2.60;;;14.40;61.90;;;;;;4996629;28;20581;-77
2023/05/17 09:32:45;;;;;;;3.80;1.85;;;14.50;61.70;;;;;;5008270;28;20064;-76
2023/05/17 09:35:11;;;;;;;3.05;1.80;;;14.50;61.50;;;;;;4995748;28;20180;-77
2023/05/17 09:37:37;;;;;;;4.20;1.73;;;14.60;61.30;;;;;;4987318;28;20500;-76
2023/05/17 09:40:05;;;;;;;6.95;1.83;;;14.70;61.10;;;;;;4992453;28;20497;-76
2023/05/17 09:42:35;;;;;;;6.05;1.92;;;14.70;61.20;;;;;;4992000;28;20073;-76
2023/05/17 09:45:01;;;;;;;4.38;1.83;;;14.80;60.50;;;;;;4980839;28;20058;-76
2023/05/17 09:47:27;;;;;;;4.50;1.77;;;14.90;60.30;;;;;;4998290;28;20113;-76
2023/05/17 09:50:01;;;;;;;7.88;1.73;;;15.00;60.10;;;;;;4964956;28;20585;-76
2023/05/17 09:52:34;;;;;;;9.77;2.10;;;15.00;59.90;;;;;;4958967;28;20404;-76
2023/05/17 09:54:59;;;;;;;5.38;1.85;;;15.00;59.70;;;;;;4964044;28;20034;-76
2023/05/17 09:57:26;;;;;;;5.07;1.88;;;15.10;59.60;;;;;;4966055;28;20093;-73
2023/05/17 09:59:54;;;;;;;6.15;1.60;;;15.10;59.30;;;;;;4978085;28;20030;-76
2023/05/17 10:02:22;;;;;;;5.78;1.98;;;15.20;59.20;;;;;;4956806;28;20780;-76
2023/05/17 10:04:50;;;;;;;7.50;2.00;;;15.20;59.10;;;;;;4963661;28;20436;-75
2023/05/17 10:07:18;;;;;;;6.93;2.22;;;15.20;58.90;;;;;;4976822;28;20045;-76
2023/05/17 10:09:45;;;;;;;5.45;2.22;;;15.20;58.80;;;;;;4963862;28;20037;-75
2023/05/17 10:12:14;;;;;;;5.47;2.00;;;15.30;58.80;;;;;;4959973;28;20042;-76
2023/05/17 10:14:40;;;;;;;7.40;2.08;;;15.30;58.70;;;;;;4958250;28;20045;-76
2023/05/17 10:17:06;;;;;;;4.40;2.20;;;15.30;58.60;;;;;;4943130;28;20037;-76
2023/05/17 10:19:31;;;;;;;3.47;1.60;;;15.30;58.40;;;;;;4975310;28;20066;-75
2023/05/17 10:21:57;;;;;;;6.10;2.33;;;15.40;58.40;;;;;;4958839;28;20065;-76
2023/05/17 10:24:22;;;;;;;5.78;2.00;;;15.40;58.40;;;;;;4964663;28;20240;-76
2023/05/17 10:26:51;;;;;;;6.47;1.92;;;15.40;58.20;;;;;;4962675;28;20133;-77
2023/05/17 10:29:19;;;;;;;8.00;2.22;;;15.40;58.00;;;;;;4962883;28;20038;-76
2023/05/17 10:31:45;;;;;;;5.57;1.70;;;15.50;57.90;;;;;;4947834;28;20042;-77
2023/05/17 10:34:10;;;;;;;5.75;1.77;;;15.50;57.90;;;;;;4971848;28;20048;-76
2023/05/17 10:36:36;;;;;;;5.75;1.83;;;15.60;57.80;;;;;;4980809;28;20709;-76
2023/05/17 10:39:01;;;;;;;3.53;1.85;;;15.70;57.80;;;;;;4953336;28;20042;-76
2023/05/17 10:41:30;;;;;;;6.03;2.33;;;15.70;57.70;;;;;;4953569;28;21417;-76
2023/05/17 10:43:55;;;;;;;4.53;2.20;;;15.80;57.60;;;;;;4964381;28;20042;-77
2023/05/17 10:46:22;;;;;;;4.10;2.13;;;16.00;57.50;;;;;;4965023;28;20035;-76
2023/05/17 10:48:51;;;;;;;5.70;2.22;;;16.10;57.30;;;;;;4965725;28;20048;-76
2023/05/17 10:51:24;;;;;;;7.07;2.22;;;16.20;57.00;;;;;;4959937;28;20058;-76
2023/05/17 10:54:09;;;;;;;4.28;2.05;;;16.30;56.50;;;;;;4962444;28;20635;-77
2023/05/17 10:56:35;;;;;;;3.42;1.75;;;16.50;55.80;;;;;;4981363;28;20436;-77
2023/05/17 10:59:22;;;;;;;3.80;1.60;;;16.60;56.00;;;;;;4963749;28;20587;-76
2023/05/17 11:02:00;;;;;;;3.47;1.67;;;16.70;54.80;;;;;;4979715;28;20038;-76
2023/05/17 11:04:51;;;;;;;6.47;1.67;;;16.80;55.30;;;;;;4980942;28;20084;-77
2023/05/17 11:07:17;;;;;;;6.05;1.88;;;17.00;54.20;;;;;;4966470;28;20748;-76
2023/05/17 11:09:49;;;;;;;6.55;2.65;;;17.00;54.80;;;;;;4996593;28;20034;-76
2023/05/17 11:12:15;;;;;;;;;;;17.10;54.10;;;;;;4975832;28;20726;-76
2023/05/17 11:14:43;;;;;;;2.63;1.58;;;17.10;54.40;;;;;;4979891;28;19983;-76
2023/05/17 11:17:26;;;;;;;7.05;2.50;;;17.20;54.40;;;;;;4995185;28;20042;-76
2023/05/17 11:19:58;;;;;;;4.60;1.77;;;17.20;53.70;;;;;;4957080;28;20152;-77
2023/05/17 11:22:26;;;;;;;4.15;1.92;;;17.20;53.90;;;;;;4956765;28;20645;-76
2023/05/17 11:24:53;;;;;;;4.47;1.85;;;17.30;53.60;;;;;;4949267;28;20042;-76
2023/05/17 11:27:19;;;;;;;5.05;1.63;;;17.40;53.50;;;;;;4956558;28;20040;-76
2023/05/17 11:29:48;;;;;;;5.82;1.88;;;17.50;53.40;;;;;;4950792;28;20041;-77
2023/05/17 11:32:13;;;;;;;4.68;1.80;;;17.50;53.00;;;;;;4959891;28;20034;-76
2023/05/17 11:34:39;;;;;;;4.03;1.88;;;17.60;52.90;;;;;;4942498;28;20638;-76
2023/05/17 11:37:05;;;;;;;3.45;1.50;;;17.70;52.70;;;;;;4951591;28;20073;-76
2023/05/17 11:39:30;;;;;;;6.80;1.85;;;17.80;52.40;;;;;;4935929;28;20046;-76
2023/05/17 11:41:56;;;;;;;3.80;1.50;;;18.00;52.20;;;;;;4972389;28;20093;-76
2023/05/17 11:44:31;;;;;;;6.38;1.98;;;18.10;52.00;;;;;;4929738;28;20539;-76
2023/05/17 11:47:10;;;;;;;4.07;1.60;;;18.30;51.20;;;;;;4966023;28;20037;-76
2023/05/17 11:49:36;;;;;;;7.10;1.77;;;18.40;50.90;;;;;;4968736;28;20049;-76
2023/05/17 11:52:03;;;;;;;3.47;1.65;;;18.50;51.10;;;;;;4997694;28;20124;-77
2023/05/17 11:54:29;;;;;;;4.05;1.63;;;18.50;50.80;;;;;;4983056;28;20041;-76
2023/05/17 11:56:54;;;;;;;6.15;1.77;;;18.50;50.70;;;;;;4997329;28;20061;-77
2023/05/17 11:59:20;;;;;;;2.85;1.38;;;18.60;50.40;;;;;;4998942;28;20653;-75
2023/05/17 12:01:47;;;;;;;6.15;1.90;;;18.60;50.30;;;;;;4979167;28;20778;-76
2023/05/17 12:04:13;;;;;;;5.90;2.30;;;18.70;50.10;;;;;;4991113;28;20060;-77
2023/05/17 12:06:39;;;;;;;8.10;2.00;;;18.80;49.80;;;;;;5003856;28;20037;-76
2023/05/17 12:09:09;;;;;;;3.80;1.65;;;18.80;49.50;;;;;;5005652;28;20079;-76
2023/05/17 12:11:38;;;;;;;5.13;1.60;;;18.80;49.50;;;;;;4974971;28;20047;-76
2023/05/17 12:14:03;;;;;;;10.05;2.40;;;18.90;49.50;;;;;;4994700;28;20129;-76
2023/05/17 12:16:29;;;;;;;5.97;1.90;;;19.00;49.30;;;;;;4986928;28;20069;-77
2023/05/17 12:18:57;;;;;;;7.10;2.15;;;19.20;49.20;;;;;;5002781;28;20041;-76
2023/05/17 12:21:22;;;;;;;8.45;2.08;;;19.30;48.90;;;;;;4997697;28;20120;-76
2023/05/17 12:23:50;;;;;;;7.18;1.75;;;19.40;48.70;;;;;;4980956;28;20036;-77
2023/05/17 12:26:16;;;;;;;2.75;1.73;;;19.50;48.40;;;;;;4989055;28;20038;-77
2023/05/17 12:28:42;;;;;;;3.97;1.65;;;19.60;48.30;;;;;;4987260;28;20036;-76
2023/05/17 12:31:12;;;;;;;5.78;2.15;;;19.70;48.20;;;;;;4996858;28;20044;-76
2023/05/17 12:33:39;;;;;;;3.40;1.50;;;19.80;47.90;;;;;;4999244;28;20037;-77
2023/05/17 12:36:06;;;;;;;2.95;1.50;;;20.00;47.80;;;;;;4991415;28;20041;-76
2023/05/17 12:38:32;;;;;;;5.03;1.83;;;20.00;47.60;;;;;;4981439;28;20707;-76
2023/05/17 12:41:01;;;;;;;3.33;1.75;;;20.00;47.20;;;;;;5000064;28;20045;-76
2023/05/17 12:43:28;;;;;;;3.28;1.70;;;20.00;46.90;;;;;;4972346;28;20034;-76
2023/05/17 12:45:55;;;;;;;7.22;1.95;;;20.10;47.10;;;;;;4988788;28;20063;-76
2023/05/17 12:48:24;;;;;;;4.75;1.65;;;20.20;47.00;;;;;;4994937;28;20113;-76
2023/05/17 12:50:51;;;;;;;3.38;1.60;;;20.40;46.70;;;;;;5006308;28;20048;-77
2023/05/17 12:53:16;;;;;;;4.07;2.10;;;20.70;46.70;;;;;;5014385;28;20500;-77
2023/05/17 12:55:42;;;;;;;6.55;1.85;;;20.90;46.40;;;;;;5012438;28;20091;-77